createdAt,value
2022-10-23T00:00:43.171Z,12.00
2022-10-23T00:03:09.770Z,12.00
2022-10-23T00:05:40.427Z,11.90
2022-10-23T00:08:09.491Z,11.90
2022-10-23T00:10:40.032Z,11.90
2022-10-23T00:13:06.596Z,11.80
2022-10-23T00:15:34.083Z,11.80
2022-10-23T00:18:00.583Z,11.80
2022-10-23T00:20:27.370Z,11.80
2022-10-23T00:22:54.410Z,11.80
2022-10-23T00:25:23.416Z,11.80
2022-10-23T00:27:51.298Z,11.80
2022-10-23T00:30:17.767Z,11.80
2022-10-23T00:32:44.307Z,11.80
2022-10-23T00:35:10.733Z,11.80
2022-10-23T00:37:37.159Z,11.80
2022-10-23T00:40:04.239Z,11.80
2022-10-23T00:42:30.685Z,11.80
2022-10-23T00:45:09.342Z,11.70
2022-10-23T00:47:39.978Z,11.70
2022-10-23T00:50:10.156Z,11.60
2022-10-23T00:52:45.101Z,11.60
2022-10-23T00:55:12.067Z,11.60
2022-10-23T00:57:41.263Z,11.50
2022-10-23T01:00:08.432Z,11.50
2022-10-23T01:02:43.556Z,11.60
2022-10-23T01:05:10.423Z,11.60
2022-10-23T01:07:54.726Z,11.50
2022-10-23T01:10:38.739Z,11.50
2022-10-23T01:13:10.488Z,11.50
2022-10-23T01:15:44.239Z,11.50
2022-10-23T01:18:25.257Z,11.50
2022-10-23T01:21:16.678Z,11.40
2022-10-23T01:23:55.508Z,11.40
2022-10-23T01:26:21.892Z,11.40
2022-10-23T01:28:55.739Z,11.40
2022-10-23T01:31:27.232Z,11.40
2022-10-23T01:34:04.039Z,11.40
2022-10-23T01:36:32.379Z,11.40
2022-10-23T01:39:01.121Z,11.40
2022-10-23T01:41:51.089Z,11.40
2022-10-23T01:44:45.131Z,11.40
2022-10-23T01:47:25.254Z,11.40
2022-10-23T01:50:04.264Z,11.30
2022-10-23T01:52:30.921Z,11.40
2022-10-23T01:54:59.120Z,11.30
2022-10-23T01:57:27.395Z,11.30
2022-10-23T02:00:09.330Z,11.30
2022-10-23T02:02:51.247Z,11.30
2022-10-23T02:05:21.418Z,11.30
2022-10-23T02:07:52.272Z,11.30
2022-10-23T02:10:19.635Z,11.30
2022-10-23T02:13:05.294Z,11.20
2022-10-23T02:15:34.894Z,11.20
2022-10-23T02:18:22.419Z,11.20
2022-10-23T02:20:56.120Z,11.20
2022-10-23T02:23:24.679Z,11.10
2022-10-23T02:25:58.718Z,11.10
2022-10-23T02:28:30.667Z,11.10
2022-10-23T02:31:01.761Z,11.10
2022-10-23T02:33:30.954Z,11.10
2022-10-23T02:35:58.664Z,11.20
2022-10-23T02:38:31.073Z,11.20
2022-10-23T02:41:02.566Z,11.10
2022-10-23T02:43:37.825Z,11.20
2022-10-23T02:46:07.521Z,11.20
2022-10-23T02:48:42.352Z,11.20
2022-10-23T02:51:16.397Z,11.20
2022-10-23T02:53:48.149Z,11.20
2022-10-23T02:56:21.377Z,11.30
2022-10-23T02:58:56.031Z,11.30
2022-10-23T03:01:31.462Z,11.40
2022-10-23T03:04:00.234Z,11.40
2022-10-23T03:06:30.363Z,11.50
2022-10-23T03:09:05.805Z,11.50
2022-10-23T03:11:32.470Z,11.50
2022-10-23T03:14:02.518Z,11.50
2022-10-23T03:16:29.446Z,11.50
2022-10-23T03:18:56.977Z,11.60
2022-10-23T03:21:23.701Z,11.60
2022-10-23T03:23:54.998Z,11.60
2022-10-23T03:26:34.779Z,11.60
2022-10-23T03:29:04.054Z,11.70
2022-10-23T03:31:31.686Z,11.70
2022-10-23T03:34:09.205Z,11.70
2022-10-23T03:36:37.452Z,11.70
2022-10-23T03:39:06.883Z,11.80
2022-10-23T03:41:42.479Z,11.80
2022-10-23T03:44:08.901Z,11.80
2022-10-23T03:46:37.446Z,11.80
2022-10-23T03:49:05.566Z,11.80
2022-10-23T03:51:32.030Z,11.80
2022-10-23T03:53:58.542Z,11.80
2022-10-23T03:56:26.243Z,11.80
2022-10-23T03:58:52.696Z,11.80
2022-10-23T04:01:19.522Z,11.80
2022-10-23T04:03:46.060Z,11.80
2022-10-23T04:06:45.666Z,11.80
2022-10-23T04:09:15.866Z,11.80
2022-10-23T04:11:50.073Z,11.80
2022-10-23T04:14:22.788Z,11.80
2022-10-23T04:16:51.614Z,11.80
2022-10-23T04:19:24.494Z,11.80
2022-10-23T04:21:57.663Z,11.80
2022-10-23T04:24:24.994Z,11.90
2022-10-23T04:26:52.973Z,11.80
2022-10-23T04:29:23.684Z,11.80
2022-10-23T04:31:50.911Z,11.80
2022-10-23T04:34:18.133Z,11.80
2022-10-23T04:36:44.745Z,11.90
2022-10-23T04:39:11.310Z,11.90
2022-10-23T04:41:39.845Z,11.90
2022-10-23T04:44:06.889Z,12.00
2022-10-23T04:46:36.945Z,12.00
2022-10-23T04:49:04.329Z,12.00
2022-10-23T04:52:11.480Z,12.10
2022-10-23T04:54:56.753Z,12.10
2022-10-23T04:57:29.192Z,12.20
2022-10-23T05:00:06.250Z,12.20
2022-10-23T05:02:40.421Z,12.20
2022-10-23T05:05:07.220Z,12.30
2022-10-23T05:07:35.600Z,12.30
2022-10-23T05:10:28.590Z,12.30
2022-10-23T05:13:02.215Z,12.30
2022-10-23T05:15:28.720Z,12.30
2022-10-23T05:17:57.493Z,12.30
2022-10-23T05:20:29.504Z,12.30
2022-10-23T05:22:56.544Z,12.30
2022-10-23T05:25:25.242Z,12.30
2022-10-23T05:28:06.961Z,12.30
2022-10-23T05:30:33.639Z,12.30
2022-10-23T05:33:02.482Z,12.30
2022-10-23T05:35:34.833Z,12.20
2022-10-23T05:38:01.544Z,12.20
2022-10-23T05:40:35.633Z,12.20
2022-10-23T05:43:08.759Z,12.20
2022-10-23T05:45:53.740Z,12.10
2022-10-23T05:48:34.535Z,12.10
2022-10-23T05:51:21.712Z,12.10
2022-10-23T05:54:02.354Z,12.10
2022-10-23T05:56:37.803Z,12.00
2022-10-23T05:59:11.860Z,12.00
2022-10-23T06:01:48.356Z,12.00
2022-10-23T06:04:21.057Z,12.00
2022-10-23T06:10:04.774Z,11.90
2022-10-23T06:12:36.690Z,11.90
2022-10-23T06:15:04.131Z,11.80
2022-10-23T06:17:50.516Z,11.80
2022-10-23T06:20:17.272Z,11.80
2022-10-23T06:22:48.449Z,11.80
2022-10-23T06:25:33.906Z,11.80
2022-10-23T06:28:03.906Z,11.80
2022-10-23T06:30:30.551Z,11.80
2022-10-23T06:33:04.520Z,11.80
2022-10-23T06:35:33.453Z,11.80
2022-10-23T06:38:00.891Z,11.80
2022-10-23T06:40:40.746Z,11.70
2022-10-23T06:43:07.951Z,11.70
2022-10-23T06:45:53.125Z,11.70
2022-10-23T06:48:53.015Z,11.70
2022-10-23T06:51:28.988Z,11.70
2022-10-23T06:53:56.512Z,11.80
2022-10-23T06:56:41.575Z,11.80
2022-10-23T06:59:09.821Z,11.80
2022-10-23T07:01:39.096Z,11.90
2022-10-23T07:04:08.589Z,11.90
2022-10-23T07:06:34.990Z,11.90
2022-10-23T07:09:04.690Z,12.00
2022-10-23T07:11:56.416Z,12.00
2022-10-23T07:14:33.224Z,12.00
2022-10-23T07:17:04.155Z,12.10
2022-10-23T07:19:31.734Z,12.10
2022-10-23T07:22:03.488Z,12.20
2022-10-23T07:24:40.258Z,12.30
2022-10-23T07:27:29.195Z,12.30
2022-10-23T07:30:01.423Z,12.40
2022-10-23T07:32:32.246Z,12.50
2022-10-23T07:35:19.605Z,12.60
2022-10-23T07:37:54.522Z,12.70
2022-10-23T07:40:25.437Z,12.80
2022-10-23T07:42:57.824Z,12.90
2022-10-23T07:45:25.375Z,13.10
2022-10-23T07:47:52.949Z,13.20
2022-10-23T07:50:23.301Z,13.40
2022-10-23T07:52:49.808Z,13.50
2022-10-23T07:55:23.600Z,13.60
2022-10-23T07:57:55.099Z,13.70
2022-10-23T08:00:34.507Z,13.80
2022-10-23T08:03:21.427Z,14.00
2022-10-23T08:05:51.087Z,14.10
2022-10-23T08:08:17.553Z,14.30
2022-10-23T08:10:50.529Z,14.40
2022-10-23T08:13:28.202Z,14.60
2022-10-23T08:16:06.699Z,14.70
2022-10-23T08:18:57.606Z,14.90
2022-10-23T08:21:24.059Z,15.00
2022-10-23T08:23:55.285Z,15.10
2022-10-23T08:26:23.882Z,15.20
2022-10-23T08:28:54.568Z,15.40
2022-10-23T08:31:22.386Z,15.50
2022-10-23T08:34:08.769Z,15.60
2022-10-23T08:36:35.828Z,15.70
2022-10-23T08:39:04.695Z,15.80
2022-10-23T08:41:36.674Z,16.00
2022-10-23T08:44:12.482Z,16.10
2022-10-23T08:46:44.179Z,16.30
2022-10-23T08:50:01.230Z,16.40
2022-10-23T08:52:46.882Z,16.50
2022-10-23T08:55:37.543Z,16.70
2022-10-23T08:58:15.475Z,16.90
2022-10-23T09:00:43.013Z,17.20
2022-10-23T09:03:11.012Z,17.40
2022-10-23T09:05:55.536Z,17.60
2022-10-23T09:08:43.015Z,17.80
2022-10-23T09:17:24.509Z,18.30
2022-10-23T09:20:04.675Z,18.50
2022-10-23T09:22:32.022Z,18.70
2022-10-23T09:25:01.169Z,19.00
2022-10-23T09:27:29.908Z,19.20
2022-10-23T09:29:58.615Z,19.40
2022-10-23T09:32:32.627Z,19.50
2022-10-23T09:35:00.182Z,19.60
2022-10-23T09:37:41.015Z,19.60
2022-10-23T09:40:15.024Z,19.50
2022-10-23T09:42:50.551Z,19.60
2022-10-23T09:45:21.429Z,19.80
2022-10-23T09:47:47.907Z,19.90
2022-10-23T09:50:39.714Z,20.10
2022-10-23T09:53:23.594Z,20.30
2022-10-23T09:55:58.120Z,20.40
2022-10-23T09:58:32.742Z,20.40
2022-10-23T10:00:59.339Z,20.40
2022-10-23T10:03:48.031Z,20.50
2022-10-23T10:06:28.572Z,20.50
2022-10-23T10:08:59.880Z,20.50
2022-10-23T10:11:37.152Z,20.60
2022-10-23T10:14:04.730Z,20.70
2022-10-23T10:16:42.011Z,21.00
2022-10-23T10:19:14.492Z,21.20
2022-10-23T10:21:51.269Z,21.20
2022-10-23T10:24:34.392Z,21.10
2022-10-23T10:27:08.103Z,21.10
2022-10-23T10:29:52.878Z,21.20
2022-10-23T10:32:37.148Z,21.30
2022-10-23T10:35:12.912Z,21.30
2022-10-23T10:37:49.483Z,21.50
2022-10-23T10:40:41.528Z,21.70
2022-10-23T10:43:25.479Z,22.00
2022-10-23T10:46:17.618Z,22.10
2022-10-23T10:49:05.075Z,22.10
2022-10-23T10:52:00.528Z,22.00
2022-10-23T10:54:47.525Z,21.70
2022-10-23T10:57:23.203Z,21.60
2022-10-23T10:59:52.126Z,21.60
2022-10-23T11:02:33.117Z,21.60
2022-10-23T11:05:12.374Z,21.60
2022-10-23T11:07:42.260Z,21.60
2022-10-23T11:10:16.493Z,21.70
2022-10-23T11:12:45.098Z,21.70
2022-10-23T11:15:37.018Z,21.70
2022-10-23T11:18:08.321Z,21.80
2022-10-23T11:20:35.151Z,21.90
2022-10-23T11:23:26.187Z,21.80
2022-10-23T11:26:13.391Z,21.80
2022-10-23T11:28:44.546Z,21.90
2022-10-23T11:31:31.963Z,22.00
2022-10-23T11:34:09.044Z,22.00
2022-10-23T11:36:38.475Z,22.00
2022-10-23T11:39:16.280Z,21.90
2022-10-23T11:41:57.057Z,22.00
2022-10-23T11:44:43.922Z,22.20
2022-10-23T11:47:38.837Z,22.50
2022-10-23T11:50:05.891Z,22.60
2022-10-23T11:52:45.549Z,22.80
2022-10-23T11:55:21.767Z,22.90
2022-10-23T11:58:08.277Z,23.00
2022-10-23T12:00:39.445Z,22.90
2022-10-23T12:03:15.029Z,22.80
2022-10-23T12:05:43.744Z,22.60
2022-10-23T12:08:21.689Z,22.60
2022-10-23T12:10:58.114Z,22.60
2022-10-23T12:13:33.814Z,22.60
2022-10-23T12:16:04.182Z,22.50
2022-10-23T12:18:31.080Z,22.50
2022-10-23T12:20:58.522Z,22.70
2022-10-23T12:23:29.435Z,22.80
2022-10-23T12:26:01.963Z,22.80
2022-10-23T12:28:28.311Z,23.00
2022-10-23T12:31:15.529Z,23.20
2022-10-23T12:34:06.282Z,23.40
2022-10-23T12:36:51.501Z,23.40
2022-10-23T12:39:24.459Z,23.20
2022-10-23T12:41:50.915Z,23.10
2022-10-23T12:44:18.515Z,23.00
2022-10-23T12:46:49.140Z,23.10
2022-10-23T12:49:19.708Z,23.10
2022-10-23T12:51:53.620Z,23.20
2022-10-23T12:54:20.613Z,23.30
2022-10-23T12:56:47.339Z,23.60
2022-10-23T12:59:18.272Z,23.80
2022-10-23T13:01:47.943Z,24.00
2022-10-23T13:04:22.858Z,24.20
2022-10-23T13:06:49.759Z,24.30
2022-10-23T13:09:19.969Z,24.40
2022-10-23T13:12:01.286Z,24.50
2022-10-23T13:14:43.613Z,24.70
2022-10-23T13:17:11.435Z,25.00
2022-10-23T13:19:40.093Z,25.40
2022-10-23T13:22:20.389Z,25.60
2022-10-23T13:24:48.130Z,25.90
2022-10-23T13:27:26.281Z,26.10
2022-10-23T13:29:52.694Z,26.30
2022-10-23T13:32:22.188Z,26.50
2022-10-23T13:35:03.689Z,26.60
2022-10-23T13:37:39.488Z,26.50
2022-10-23T13:40:09.525Z,26.30
2022-10-23T13:43:03.942Z,26.10
2022-10-23T13:45:34.735Z,25.80
2022-10-23T13:48:07.347Z,25.70
2022-10-23T13:50:38.378Z,25.50
2022-10-23T13:53:07.120Z,25.40
2022-10-23T13:55:33.985Z,25.30
2022-10-23T13:58:00.538Z,25.20
2022-10-23T14:00:30.257Z,25.10
2022-10-23T14:02:59.134Z,25.10
2022-10-23T14:05:28.072Z,24.90
2022-10-23T14:07:54.616Z,24.80
2022-10-23T14:10:25.603Z,24.70
2022-10-23T14:12:54.491Z,24.60
2022-10-23T14:15:21.294Z,24.50
2022-10-23T14:17:47.753Z,24.40
2022-10-23T14:20:15.666Z,24.30
2022-10-23T14:22:45.611Z,24.20
2022-10-23T14:25:14.383Z,24.10
2022-10-23T14:27:40.864Z,24.00
2022-10-23T14:30:07.810Z,23.90
2022-10-23T14:32:37.256Z,23.70
2022-10-23T14:35:03.898Z,23.60
2022-10-23T14:37:30.625Z,23.50
2022-10-23T14:39:59.525Z,23.40
2022-10-23T14:42:33.936Z,23.40
2022-10-23T14:45:03.196Z,23.30
2022-10-23T14:47:32.350Z,23.20
2022-10-23T14:49:59.761Z,23.10
2022-10-23T14:52:27.627Z,22.90
2022-10-23T14:54:54.153Z,22.80
2022-10-23T14:57:22.103Z,22.70
2022-10-23T14:59:49.704Z,22.60
2022-10-23T15:02:16.694Z,22.50
2022-10-23T15:04:43.086Z,22.40
2022-10-23T15:07:11.364Z,22.40
2022-10-23T15:09:39.459Z,22.30
2022-10-23T15:12:09.726Z,22.30
2022-10-23T15:14:38.143Z,22.30
2022-10-23T15:17:04.730Z,22.20
2022-10-23T15:19:31.634Z,22.20
2022-10-23T15:21:59.791Z,22.10
2022-10-23T15:24:26.616Z,22.10
2022-10-23T15:26:56.701Z,22.00
2022-10-23T15:29:28.500Z,21.90
2022-10-23T15:31:59.100Z,21.80
2022-10-23T15:34:27.607Z,21.70
2022-10-23T15:36:54.773Z,21.60
2022-10-23T15:39:22.411Z,21.50
2022-10-23T15:41:52.208Z,21.50
2022-10-23T15:44:20.949Z,21.40
2022-10-23T15:46:47.829Z,21.40
2022-10-23T15:49:21.266Z,21.30
2022-10-23T15:51:47.779Z,21.30
2022-10-23T15:54:17.532Z,21.20
2022-10-23T15:56:50.550Z,21.10
2022-10-23T15:59:18.793Z,21.00
2022-10-23T16:01:49.087Z,21.00
2022-10-23T16:04:15.785Z,20.80
2022-10-23T16:06:44.031Z,20.80
2022-10-23T16:09:20.501Z,20.80
2022-10-23T16:11:50.856Z,20.70
2022-10-23T16:14:17.254Z,20.50
2022-10-23T16:16:43.842Z,20.50
2022-10-23T16:19:11.485Z,20.50
2022-10-23T16:21:38.766Z,20.40
2022-10-23T16:24:06.612Z,20.40
2022-10-23T16:26:36.618Z,20.40
2022-10-23T16:29:05.405Z,20.30
2022-10-23T16:31:32.626Z,20.30
2022-10-23T16:33:59.693Z,20.30
2022-10-23T16:36:28.588Z,20.20
2022-10-23T16:39:20.431Z,20.20
2022-10-23T16:42:06.026Z,20.20
2022-10-23T16:44:48.454Z,20.20
2022-10-23T16:47:17.241Z,20.20
2022-10-23T16:49:43.725Z,20.10
2022-10-23T16:52:10.347Z,20.10
2022-10-23T16:54:36.920Z,20.20
2022-10-23T16:57:03.400Z,20.10
2022-10-23T16:59:29.850Z,20.20
2022-10-23T17:01:56.525Z,20.20
2022-10-23T17:04:23.257Z,20.10
2022-10-23T17:06:49.669Z,20.10
2022-10-23T17:09:19.068Z,20.20
2022-10-23T17:11:47.297Z,20.20
2022-10-23T17:14:16.828Z,20.20
2022-10-23T17:16:45.753Z,20.30
2022-10-23T17:19:20.761Z,20.30
2022-10-23T17:21:59.958Z,20.20
2022-10-23T17:24:27.631Z,20.20
2022-10-23T17:26:56.182Z,20.20
2022-10-23T17:29:22.743Z,20.10
2022-10-23T17:37:40.954Z,19.90
2022-10-23T17:40:10.021Z,19.80
2022-10-23T17:42:36.416Z,19.80
2022-10-23T17:45:05.206Z,19.70
2022-10-23T17:47:31.777Z,19.60
2022-10-23T17:49:59.326Z,19.50
2022-10-23T17:52:25.871Z,19.40
2022-10-23T17:54:53.483Z,19.30
2022-10-23T17:57:20.068Z,19.40
2022-10-23T17:59:48.893Z,19.30
2022-10-23T18:02:15.410Z,19.20
2022-10-23T18:04:44.740Z,19.10
2022-10-23T18:07:12.311Z,18.90
2022-10-23T18:09:40.982Z,18.90
2022-10-23T18:12:09.759Z,18.80
2022-10-23T18:14:37.456Z,18.70
2022-10-23T18:17:10.160Z,18.60
2022-10-23T18:19:39.441Z,18.50
2022-10-23T18:22:08.937Z,18.40
2022-10-23T18:24:37.231Z,18.30
2022-10-23T18:27:03.714Z,18.20
2022-10-23T18:29:30.341Z,18.20
2022-10-23T18:31:56.722Z,18.10
2022-10-23T18:34:24.150Z,18.10
2022-10-23T18:36:54.617Z,18.10
2022-10-23T18:39:22.859Z,18.00
2022-10-23T18:41:53.658Z,17.90
2022-10-23T18:44:22.347Z,17.80
2022-10-23T18:46:51.382Z,17.80
2022-10-23T18:49:18.491Z,17.80
2022-10-23T18:51:46.236Z,17.80
2022-10-23T18:54:17.088Z,17.80
2022-10-23T18:56:45.884Z,17.80
2022-10-23T18:59:14.574Z,17.80
2022-10-23T19:01:41.637Z,17.80
2022-10-23T19:04:16.930Z,17.80
2022-10-23T19:06:50.001Z,17.70
2022-10-23T19:09:16.872Z,17.60
2022-10-23T19:11:44.498Z,17.60
2022-10-23T19:14:11.085Z,17.50
2022-10-23T19:16:43.404Z,17.40
2022-10-23T19:19:20.854Z,17.30
2022-10-23T19:21:48.488Z,17.30
2022-10-23T19:24:22.466Z,17.30
2022-10-23T19:26:56.583Z,17.20
2022-10-23T19:29:25.681Z,17.20
2022-10-23T19:31:52.577Z,17.30
2022-10-23T19:34:20.318Z,17.20
2022-10-23T19:36:47.484Z,17.20
2022-10-23T19:39:16.223Z,17.20
2022-10-23T19:41:42.988Z,17.20
2022-10-23T19:44:13.129Z,17.20
2022-10-23T19:46:39.849Z,17.20
2022-10-23T19:49:08.168Z,17.20
2022-10-23T19:51:34.823Z,17.20
2022-10-23T19:54:04.461Z,17.20
2022-10-23T19:56:30.979Z,17.20
2022-10-23T19:58:57.472Z,17.30
2022-10-23T20:01:26.286Z,17.30
2022-10-23T20:03:54.715Z,17.30
2022-10-23T20:06:23.295Z,17.20
2022-10-23T20:08:50.340Z,17.20
2022-10-23T20:11:20.445Z,17.20
2022-10-23T20:13:48.286Z,17.20
2022-10-23T20:16:18.991Z,17.20
2022-10-23T20:18:52.587Z,17.20
2022-10-23T20:21:25.703Z,17.20
2022-10-23T20:23:57.922Z,17.20
2022-10-23T20:26:25.108Z,17.10
2022-10-23T20:28:54.073Z,17.10
2022-10-23T20:31:22.334Z,17.00
2022-10-23T20:33:49.110Z,17.00
2022-10-23T20:36:21.717Z,17.00
2022-10-23T20:38:48.806Z,16.90
2022-10-23T20:41:16.541Z,16.90
2022-10-23T20:43:43.763Z,16.90
2022-10-23T20:46:12.938Z,16.90
2022-10-23T20:48:40.554Z,16.80
2022-10-23T20:51:08.749Z,16.90
2022-10-23T20:53:36.307Z,16.90
2022-10-23T20:56:38.322Z,16.80
2022-10-23T20:59:43.889Z,16.70
2022-10-23T21:02:11.693Z,16.70
2022-10-23T21:04:38.239Z,16.70
2022-10-23T21:07:11.047Z,16.70
2022-10-23T21:09:38.662Z,16.70
2022-10-23T21:12:05.748Z,16.60
2022-10-23T21:14:34.731Z,16.60
2022-10-23T21:17:03.290Z,16.60
2022-10-23T21:19:29.760Z,16.60
2022-10-23T21:21:56.177Z,16.60
2022-10-23T21:24:23.847Z,16.50
2022-10-23T21:26:50.411Z,16.50
2022-10-23T21:29:19.391Z,16.50
2022-10-23T21:31:57.052Z,16.50
2022-10-23T21:34:24.235Z,16.50
2022-10-23T21:39:38.274Z,16.50
2022-10-23T21:42:04.764Z,16.50
2022-10-23T21:44:31.404Z,16.50
2022-10-23T21:46:59.040Z,16.50
2022-10-23T21:49:25.453Z,16.40
2022-10-23T21:51:53.989Z,16.40
2022-10-23T21:54:21.540Z,16.40
2022-10-23T21:56:51.041Z,16.30
2022-10-23T21:59:19.098Z,16.30
2022-10-23T22:01:46.763Z,16.20
2022-10-23T22:04:14.113Z,16.20
2022-10-23T22:06:41.287Z,16.10
2022-10-23T22:09:09.240Z,16.10
2022-10-23T22:11:38.086Z,16.10
2022-10-23T22:14:04.601Z,16.10
2022-10-23T22:16:31.075Z,16.00
2022-10-23T22:18:59.946Z,16.10
2022-10-23T22:21:30.866Z,16.00
2022-10-23T22:23:58.018Z,16.10
2022-10-23T22:26:26.761Z,16.10
2022-10-23T22:28:54.285Z,16.00
2022-10-23T22:31:22.010Z,16.00
2022-10-23T22:33:48.808Z,16.00
2022-10-23T22:36:15.268Z,16.00
2022-10-23T22:38:42.288Z,16.00
2022-10-23T22:41:10.369Z,15.80
2022-10-23T22:43:36.780Z,15.80
2022-10-23T22:46:03.232Z,15.70
2022-10-23T22:48:29.731Z,15.60
2022-10-23T22:50:56.322Z,15.60
2022-10-23T22:53:24.995Z,15.60
2022-10-23T22:55:52.958Z,15.60
2022-10-23T22:58:19.439Z,15.60
2022-10-23T23:00:51.912Z,15.60
2022-10-23T23:03:18.793Z,15.60
2022-10-23T23:05:47.692Z,15.60
2022-10-23T23:08:14.447Z,15.50
2022-10-23T23:10:41.034Z,15.50
2022-10-23T23:13:09.954Z,15.40
2022-10-23T23:15:40.363Z,15.40
2022-10-23T23:18:09.165Z,15.30
2022-10-23T23:20:36.660Z,15.40
2022-10-23T23:23:05.722Z,15.30
2022-10-23T23:25:32.135Z,15.30
2022-10-23T23:27:58.606Z,15.30
2022-10-23T23:30:27.724Z,15.30
2022-10-23T23:32:54.102Z,15.20
2022-10-23T23:35:20.632Z,15.10
2022-10-23T23:37:49.344Z,15.20
2022-10-23T23:40:15.824Z,15.20
2022-10-23T23:42:42.571Z,15.10
2022-10-23T23:45:15.094Z,15.10
2022-10-23T23:47:42.039Z,15.10
2022-10-23T23:50:09.514Z,15.10
2022-10-23T23:52:35.957Z,15.00
2022-10-23T23:55:02.665Z,15.00
2022-10-23T23:57:29.188Z,15.00
2022-10-23T23:59:55.704Z,15.00
